Time;durP1;ratioP1;P1;durP2;ratioP2;P2;SDS_P1;SDS_P2;PMS_P1;PMS_P2;Temp;Humidity;BMP_temperature;BMP_pressure;BME280_temperature;BME280_humidity;BME280_pressure;Samples;Min_cycle;Max_cycle;Signal;HPM_P1;HPM_P2
2022/09/06 00:01:17;;;;;;;2.65;2.30;;;15.30;99.90;;;;;;5086011;28;20492;-34
2022/09/06 00:03:43;;;;;;;4.95;3.35;;;15.30;99.90;;;;;;5081704;28;20118;-33
2022/09/06 00:06:17;;;;;;;4.20;2.55;;;15.20;99.90;;;;;;5077534;28;20127;-37
2022/09/06 00:08:44;;;;;;;2.65;2.45;;;14.80;99.90;;;;;;5082838;28;20032;-32
2022/09/06 00:11:10;;;;;;;3.42;2.67;;;14.90;99.90;;;;;;5077410;28;20052;-32
2022/09/06 00:13:36;;;;;;;32.80;3.13;;;14.90;99.90;;;;;;5080792;28;20036;-35
2022/09/06 00:16:14;;;;;;;2.30;2.10;;;14.80;99.90;;;;;;5078528;28;20110;-32
2022/09/06 00:18:40;;;;;;;2.25;1.90;;;14.70;99.90;;;;;;5082745;28;20024;-36
2022/09/06 00:21:15;;;;;;;3.53;2.05;;;14.90;99.90;;;;;;5080131;28;20476;-34
2022/09/06 00:23:41;;;;;;;2.92;2.60;;;15.10;99.90;;;;;;5081564;28;20081;-35
2022/09/06 00:26:06;;;;;;;3.00;2.30;;;15.20;99.90;;;;;;5060358;28;20404;-34
2022/09/06 00:28:32;;;;;;;2.13;2.00;;;15.20;99.90;;;;;;5082441;28;20404;-35
2022/09/06 00:30:58;;;;;;;2.95;2.30;;;15.20;99.90;;;;;;5077702;28;20028;-32
2022/09/06 00:33:23;;;;;;;3.22;2.58;;;15.00;99.90;;;;;;5080169;28;20393;-33
2022/09/06 00:35:49;;;;;;;2.97;2.65;;;14.70;99.90;;;;;;5081762;28;20039;-33
2022/09/06 00:38:15;;;;;;;3.13;2.40;;;14.70;99.90;;;;;;5082359;28;20125;-32
2022/09/06 00:40:41;;;;;;;2.20;2.00;;;14.80;99.90;;;;;;5080121;28;20032;-34
2022/09/06 00:43:07;;;;;;;4.40;3.25;;;14.90;99.90;;;;;;5082368;28;20071;-32
2022/09/06 00:45:33;;;;;;;2.10;1.90;;;14.70;99.90;;;;;;5080659;28;20670;-32
2022/09/06 00:48:00;;;;;;;2.03;1.92;;;14.50;99.90;;;;;;5078926;28;20032;-33
2022/09/06 00:50:26;;;;;;;2.65;2.20;;;14.50;99.90;;;;;;5079578;28;20027;-37
2022/09/06 00:52:53;;;;;;;3.78;2.55;;;14.70;99.90;;;;;;5080045;28;20031;-32
2022/09/06 00:55:20;;;;;;;2.70;2.47;;;14.60;99.90;;;;;;5080839;28;21509;-36
2022/09/06 00:57:49;;;;;;;3.67;2.42;;;14.60;99.90;;;;;;5077690;28;20035;-33
2022/09/06 01:00:17;;;;;;;4.47;2.55;;;14.80;99.90;;;;;;5082256;28;20128;-32
2022/09/06 01:02:43;;;;;;;4.55;2.90;;;14.80;99.90;;;;;;5074184;28;20039;-35
2022/09/06 01:05:10;;;;;;;4.82;2.70;;;14.90;99.90;;;;;;5080915;28;20518;-33
2022/09/06 01:07:42;;;;;;;2.50;2.30;;;14.90;99.90;;;;;;5077171;28;20401;-34
2022/09/06 01:10:29;;;;;;;2.15;1.83;;;14.90;99.90;;;;;;5081534;28;20489;-34
2022/09/06 01:13:21;;;;;;;2.92;1.60;;;14.50;99.90;;;;;;5077076;28;20028;-32
2022/09/06 01:15:52;;;;;;;1.85;1.70;;;14.40;99.90;;;;;;5079518;28;20035;-32
2022/09/06 01:18:37;;;;;;;1.85;1.75;;;14.50;99.90;;;;;;5068775;28;20016;-32
2022/09/06 01:21:16;;;;;;;1.17;1.17;;;14.50;99.90;;;;;;5076916;28;20048;-34
2022/09/06 01:24:06;;;;;;;1.83;1.50;;;14.30;99.90;;;;;;5081895;28;20039;-33
2022/09/06 01:26:35;;;;;;;2.05;1.85;;;14.40;99.90;;;;;;5053670;28;20032;-33
2022/09/06 01:29:03;;;;;;;1.60;1.50;;;14.50;99.90;;;;;;5078186;28;20093;-32
2022/09/06 01:31:45;;;;;;;1.70;1.60;;;14.50;99.90;;;;;;5051348;28;20489;-32
2022/09/06 01:34:20;;;;;;;1.70;1.60;;;14.60;99.90;;;;;;5079321;28;20024;-32
2022/09/06 01:37:07;;;;;;;1.55;1.45;;;14.50;99.90;;;;;;5076195;28;20032;-37
2022/09/06 01:39:34;;;;;;;1.87;1.47;;;14.50;99.90;;;;;;5083127;28;20044;-34
2022/09/06 01:42:07;;;;;;;1.67;1.58;;;14.50;99.90;;;;;;5085779;28;20531;-32
2022/09/06 01:44:35;;;;;;;2.25;2.05;;;14.50;99.90;;;;;;5085075;28;20020;-32
2022/09/06 01:47:52;;;;;;;2.22;2.00;;;14.50;99.90;;;;;;5066159;28;20028;-33
2022/09/06 01:50:29;;;;;;;2.05;1.85;;;14.50;99.90;;;;;;5030428;28;20032;-33
2022/09/06 01:53:27;;;;;;;2.63;2.40;;;14.40;99.90;;;;;;5081686;28;20024;-32
2022/09/06 01:56:11;;;;;;;2.78;2.42;;;14.50;99.90;;;;;;5026820;28;20036;-31
2022/09/06 01:59:13;;;;;;;4.20;2.30;;;14.50;99.90;;;;;;5081095;28;20021;-35
2022/09/06 02:01:42;;;;;;;3.33;3.03;;;14.40;99.90;;;;;;5081292;28;20387;-33
2022/09/06 02:04:27;;;;;;;;;;;14.50;99.90;;;;;;5079501;28;20032;-36
2022/09/06 02:07:00;;;;;;;2.80;2.58;;;14.40;99.90;;;;;;5074411;28;20038;-32
2022/09/06 02:09:32;;;;;;;2.90;2.70;;;14.40;99.90;;;;;;5075874;28;20082;-34
2022/09/06 02:12:00;;;;;;;2.95;2.40;;;14.30;99.90;;;;;;5086110;28;20534;-32
2022/09/06 02:14:38;;;;;;;;;;;14.20;99.90;;;;;;5081911;28;20033;-34
2022/09/06 02:17:07;;;;;;;2.30;2.08;;;14.20;99.90;;;;;;5084096;28;19912;-32
2022/09/06 02:19:46;;;;;;;3.92;2.30;;;14.10;99.90;;;;;;5061601;28;20037;-35
2022/09/06 02:22:16;;;;;;;2.20;2.00;;;14.20;99.90;;;;;;5079288;28;20116;-34
2022/09/06 02:24:43;;;;;;;1.33;1.27;;;14.10;99.90;;;;;;5080558;28;20032;-33
2022/09/06 02:27:11;;;;;;;1.90;1.80;;;13.80;99.90;;;;;;5081559;28;20039;-38
2022/09/06 02:29:37;;;;;;;1.63;1.52;;;13.50;99.90;;;;;;5079456;28;20047;-34
2022/09/06 02:32:22;;;;;;;1.50;1.40;;;13.50;99.90;;;;;;5061918;28;20501;-32
2022/09/06 02:34:50;;;;;;;0.75;0.75;;;13.50;99.90;;;;;;5082077;28;20039;-35
2022/09/06 02:37:16;;;;;;;;;;;13.50;99.90;;;;;;5080565;28;20032;-32
2022/09/06 02:39:42;;;;;;;1.27;1.17;;;13.70;99.90;;;;;;5065155;28;19964;-33
2022/09/06 02:42:10;;;;;;;1.80;1.70;;;13.70;99.90;;;;;;5059318;28;20216;-32
2022/09/06 02:44:35;;;;;;;1.52;1.42;;;13.80;99.90;;;;;;5082298;28;20051;-37
2022/09/06 02:47:02;;;;;;;2.08;1.92;;;13.80;99.90;;;;;;5082536;28;20036;-32
2022/09/06 02:49:28;;;;;;;1.73;1.63;;;13.80;99.90;;;;;;5078471;28;20067;-33
2022/09/06 02:51:55;;;;;;;1.70;1.60;;;13.90;99.90;;;;;;5078308;28;20500;-35
2022/09/06 02:54:21;;;;;;;2.53;1.70;;;13.80;99.90;;;;;;5077937;28;20081;-33
2022/09/06 02:56:47;;;;;;;2.60;2.40;;;13.80;99.90;;;;;;5080616;28;20024;-33
2022/09/06 02:59:12;;;;;;;3.08;2.78;;;13.70;99.90;;;;;;5060830;28;20024;-34
2022/09/06 03:01:38;;;;;;;4.13;2.47;;;13.60;99.90;;;;;;5060414;28;20081;-33
2022/09/06 03:04:04;;;;;;;4.82;2.55;;;13.60;99.90;;;;;;5078853;28;20522;-33
2022/09/06 03:06:30;;;;;;;3.72;2.50;;;13.70;99.90;;;;;;5067051;28;20024;-32
2022/09/06 03:08:57;;;;;;;3.22;2.80;;;13.70;99.90;;;;;;5079292;28;20492;-34
2022/09/06 03:11:22;;;;;;;2.60;2.40;;;13.70;99.90;;;;;;5075234;28;20444;-33
2022/09/06 03:13:49;;;;;;;3.00;2.80;;;13.70;99.90;;;;;;5080160;28;20024;-34
2022/09/06 03:16:15;;;;;;;3.70;2.90;;;13.60;99.90;;;;;;5067565;28;20020;-32
2022/09/06 03:18:41;;;;;;;3.17;2.70;;;13.60;99.90;;;;;;5056202;28;20381;-33
2022/09/06 03:21:07;;;;;;;4.75;2.78;;;13.60;99.90;;;;;;5077274;28;20352;-32
2022/09/06 03:23:33;;;;;;;3.63;2.78;;;13.60;99.90;;;;;;5059010;28;20035;-37
2022/09/06 03:25:59;;;;;;;3.40;3.10;;;13.60;99.90;;;;;;5057208;28;20040;-33
2022/09/06 03:28:25;;;;;;;3.08;2.80;;;13.50;99.90;;;;;;5059847;28;20634;-36
2022/09/06 03:30:51;;;;;;;2.30;2.10;;;13.50;99.90;;;;;;5077657;28;20028;-34
2022/09/06 03:33:17;;;;;;;1.70;1.60;;;13.50;99.90;;;;;;5076106;28;20368;-32
2022/09/06 03:35:48;;;;;;;1.70;1.60;;;13.50;99.90;;;;;;5081703;28;20024;-33
2022/09/06 03:38:14;;;;;;;1.92;1.70;;;13.40;99.90;;;;;;5073843;28;20036;-34
2022/09/06 03:40:39;;;;;;;1.85;1.67;;;13.30;99.90;;;;;;5075817;28;20268;-36
2022/09/06 03:43:05;;;;;;;1.60;1.50;;;13.30;99.90;;;;;;5080185;28;20068;-37
2022/09/06 03:45:31;;;;;;;2.53;1.90;;;13.30;99.90;;;;;;5060028;28;20032;-33
2022/09/06 03:47:56;;;;;;;2.50;2.30;;;13.40;99.90;;;;;;5079808;28;20592;-33
2022/09/06 03:50:22;;;;;;;3.15;2.38;;;13.30;99.90;;;;;;5078211;28;20035;-33
2022/09/06 03:52:47;;;;;;;2.75;2.35;;;13.10;99.90;;;;;;5079719;28;20358;-35
2022/09/06 03:55:13;;;;;;;2.40;2.20;;;13.10;99.90;;;;;;5078546;28;20032;-35
2022/09/06 03:57:39;;;;;;;2.47;2.28;;;13.20;99.90;;;;;;5064501;28;20516;-34
2022/09/06 04:00:05;;;;;;;3.08;2.50;;;13.20;99.90;;;;;;5079053;28;20028;-32
2022/09/06 04:02:31;;;;;;;2.95;2.40;;;13.30;99.90;;;;;;5077702;28;20392;-33
2022/09/06 04:04:57;;;;;;;3.03;2.80;;;13.20;99.90;;;;;;5081143;28;20036;-34
2022/09/06 04:07:23;;;;;;;3.33;2.25;;;13.20;99.90;;;;;;5066371;28;20054;-33
2022/09/06 04:09:49;;;;;;;3.65;1.90;;;13.20;99.90;;;;;;5079924;28;20032;-32
2022/09/06 04:12:14;;;;;;;2.30;2.13;;;13.30;99.90;;;;;;5051428;28;20031;-34
2022/09/06 04:14:40;;;;;;;1.83;1.73;;;13.20;99.90;;;;;;5080518;28;20024;-33
2022/09/06 04:17:05;;;;;;;1.73;1.63;;;13.00;99.90;;;;;;5080623;28;20489;-34
2022/09/06 04:19:31;;;;;;;1.95;1.65;;;12.80;99.90;;;;;;5074355;28;20028;-34
2022/09/06 04:21:57;;;;;;;1.58;1.48;;;12.60;99.90;;;;;;5082339;28;20043;-33
2022/09/06 04:24:22;;;;;;;1.85;1.75;;;12.60;99.90;;;;;;5062103;28;20031;-33
2022/09/06 04:26:48;;;;;;;2.05;1.88;;;12.70;99.90;;;;;;5051719;28;20032;-32
2022/09/06 04:29:14;;;;;;;2.42;2.22;;;12.60;99.90;;;;;;5080479;28;20028;-34
2022/09/06 04:31:39;;;;;;;2.20;2.00;;;12.50;99.90;;;;;;5075074;28;20043;-32
2022/09/06 04:34:05;;;;;;;24.13;2.72;;;12.40;99.90;;;;;;5080580;28;20024;-32
2022/09/06 04:36:31;;;;;;;2.60;1.85;;;12.50;99.90;;;;;;5083063;28;20441;-33
2022/09/06 04:38:56;;;;;;;2.22;1.80;;;12.50;99.90;;;;;;5074525;28;20041;-36
2022/09/06 04:41:22;;;;;;;2.78;2.13;;;12.40;99.90;;;;;;5074334;28;20097;-34
2022/09/06 04:43:48;;;;;;;2.95;2.65;;;12.40;99.90;;;;;;5083381;28;20500;-34
2022/09/06 04:46:29;;;;;;;7.05;3.03;;;12.50;99.90;;;;;;5081814;28;20028;-34
2022/09/06 04:48:56;;;;;;;3.67;2.95;;;12.60;99.90;;;;;;5078226;28;20020;-33
2022/09/06 04:51:23;;;;;;;3.85;2.97;;;12.60;99.90;;;;;;5056731;28;20024;-33
2022/09/06 04:53:50;;;;;;;5.20;3.25;;;12.60;99.90;;;;;;5082847;28;20035;-35
2022/09/06 04:56:21;;;;;;;6.57;3.13;;;12.80;99.90;;;;;;5079944;28;21167;-32
2022/09/06 04:58:48;;;;;;;5.40;3.78;;;12.90;99.90;;;;;;5080889;28;20437;-33
2022/09/06 05:01:14;;;;;;;6.93;3.75;;;13.00;99.90;;;;;;5073987;28;20047;-33
2022/09/06 05:03:40;;;;;;;4.55;4.05;;;13.00;99.90;;;;;;5059069;28;20032;-33
2022/09/06 05:06:18;;;;;;;5.75;4.18;;;13.20;99.90;;;;;;5076066;28;20117;-32
2022/09/06 05:08:43;;;;;;;7.80;4.13;;;13.30;99.90;;;;;;5081869;28;20500;-35
2022/09/06 05:11:10;;;;;;;8.73;3.90;;;13.30;99.90;;;;;;5074619;28;20038;-32
2022/09/06 05:13:35;;;;;;;4.20;3.55;;;13.40;99.90;;;;;;5064180;28;20090;-35
2022/09/06 05:16:04;;;;;;;7.45;3.63;;;13.50;99.90;;;;;;5078490;28;20032;-33
2022/09/06 05:18:30;;;;;;;4.05;3.40;;;13.60;99.90;;;;;;5082098;28;20055;-34
2022/09/06 05:20:56;;;;;;;4.13;3.63;;;13.60;99.90;;;;;;5078100;28;20048;-33
2022/09/06 05:23:22;;;;;;;5.18;4.05;;;13.60;99.90;;;;;;5064489;28;20036;-32
2022/09/06 05:25:48;;;;;;;5.35;3.90;;;13.70;99.90;;;;;;5079815;28;20032;-32
2022/09/06 05:28:15;;;;;;;5.28;3.75;;;13.70;99.90;;;;;;5078284;28;20089;-34
2022/09/06 05:30:41;;;;;;;4.40;3.60;;;13.70;99.90;;;;;;5064538;28;20438;-34
2022/09/06 05:33:08;;;;;;;6.45;2.92;;;13.60;99.90;;;;;;5077695;28;20068;-33
2022/09/06 05:35:34;;;;;;;4.90;3.75;;;13.60;99.90;;;;;;5084646;28;20631;-32
2022/09/06 05:38:00;;;;;;;6.05;3.88;;;13.60;99.90;;;;;;5085196;28;20114;-35
2022/09/06 05:40:25;;;;;;;4.97;3.92;;;13.60;99.90;;;;;;5083655;28;20335;-32
2022/09/06 05:42:51;;;;;;;5.47;4.35;;;13.70;99.90;;;;;;5062385;28;20115;-33
2022/09/06 05:45:17;;;;;;;8.00;4.10;;;13.90;99.90;;;;;;5082462;28;20390;-34
2022/09/06 05:47:42;;;;;;;4.43;4.03;;;14.10;99.90;;;;;;5085445;28;20510;-32
2022/09/06 05:50:08;;;;;;;9.27;5.13;;;14.20;99.90;;;;;;5080590;28;20036;-32
2022/09/06 05:52:35;;;;;;;7.68;4.68;;;14.30;99.90;;;;;;5077810;28;20064;-34
2022/09/06 05:55:01;;;;;;;10.73;5.22;;;14.40;99.90;;;;;;5063520;28;20063;-32
2022/09/06 05:57:27;;;;;;;8.43;5.28;;;14.50;99.90;;;;;;5058154;28;20024;-33
2022/09/06 05:59:53;;;;;;;7.45;4.97;;;14.60;99.90;;;;;;5082469;28;20032;-36
2022/09/06 06:02:22;;;;;;;8.52;4.90;;;14.60;99.90;;;;;;5080715;28;20039;-33
2022/09/06 06:04:48;;;;;;;7.43;5.05;;;14.60;99.90;;;;;;5075699;28;20020;-33
2022/09/06 06:07:14;;;;;;;6.63;4.95;;;14.70;99.90;;;;;;5057332;28;20062;-37
2022/09/06 06:09:40;;;;;;;7.20;4.88;;;14.70;99.90;;;;;;5058619;28;20032;-32
2022/09/06 06:12:07;;;;;;;8.02;4.75;;;14.70;99.90;;;;;;5078186;28;20154;-35
2022/09/06 06:14:33;;;;;;;6.43;5.20;;;14.80;99.90;;;;;;5080756;28;20058;-32
2022/09/06 06:16:59;;;;;;;9.25;6.03;;;14.80;99.90;;;;;;5083801;28;20036;-33
2022/09/06 06:19:25;;;;;;;8.55;5.53;;;14.80;99.90;;;;;;5080346;28;20044;-35
2022/09/06 06:21:51;;;;;;;7.78;6.07;;;14.80;99.90;;;;;;5076200;28;20115;-33
2022/09/06 06:24:17;;;;;;;7.22;5.57;;;14.90;99.90;;;;;;5077854;28;20115;-33
2022/09/06 06:26:43;;;;;;;8.98;6.00;;;14.90;99.90;;;;;;5058613;28;20024;-36
2022/09/06 06:29:09;;;;;;;9.27;5.47;;;14.90;99.90;;;;;;5076403;28;20024;-36
2022/09/06 06:31:37;;;;;;;9.13;5.63;;;14.90;99.90;;;;;;5076465;28;20406;-35
2022/09/06 06:34:02;;;;;;;9.00;5.70;;;14.90;99.90;;;;;;5036238;28;20051;-34
2022/09/06 06:36:30;;;;;;;8.73;5.47;;;15.00;99.90;;;;;;5081515;28;20764;-33
2022/09/06 06:38:57;;;;;;;7.60;5.97;;;15.10;99.90;;;;;;5062297;28;20704;-32
2022/09/06 06:41:26;;;;;;;7.05;5.35;;;15.20;99.90;;;;;;5059752;28;20294;-35
2022/09/06 06:43:56;;;;;;;9.88;6.32;;;15.20;99.90;;;;;;5077729;28;20043;-33
2022/09/06 06:46:31;;;;;;;6.15;5.00;;;15.20;99.90;;;;;;5085504;28;20032;-32
2022/09/06 06:48:57;;;;;;;7.63;5.10;;;15.20;99.90;;;;;;5055597;28;20020;-33
2022/09/06 06:51:28;;;;;;;6.47;5.43;;;15.30;99.90;;;;;;5065693;28;20039;-33
2022/09/06 06:53:55;;;;;;;7.60;5.10;;;15.30;99.90;;;;;;5083625;28;20077;-37
2022/09/06 06:56:26;;;;;;;6.38;5.50;;;15.30;99.90;;;;;;5071676;28;20024;-34
2022/09/06 06:58:54;;;;;;;6.15;4.88;;;15.40;99.90;;;;;;5067495;28;20039;-32
2022/09/06 07:01:21;;;;;;;8.20;5.22;;;15.40;99.90;;;;;;5082470;28;20681;-36
2022/09/06 07:03:48;;;;;;;9.85;5.40;;;15.50;99.90;;;;;;5062401;28;20032;-34
2022/09/06 07:06:15;;;;;;;6.68;5.35;;;15.50;99.90;;;;;;5066768;28;20058;-33
2022/09/06 07:08:41;;;;;;;6.30;4.70;;;15.60;99.90;;;;;;5078124;28;20054;-34
2022/09/06 07:11:10;;;;;;;7.10;5.30;;;15.70;99.90;;;;;;5061098;28;20465;-32
2022/09/06 07:13:35;;;;;;;7.75;4.78;;;15.80;99.90;;;;;;5080407;28;20082;-35
2022/09/06 07:16:10;;;;;;;8.80;6.97;;;15.90;99.90;;;;;;5083978;28;20043;-36
2022/09/06 07:18:40;;;;;;;6.78;5.63;;;16.00;99.90;;;;;;5085210;28;20114;-34
2022/09/06 07:21:16;;;;;;;5.90;5.30;;;16.10;99.90;;;;;;5086881;28;20058;-33
2022/09/06 07:23:43;;;;;;;5.50;4.95;;;16.20;99.90;;;;;;5066089;28;20743;-33
2022/09/06 07:26:17;;;;;;;7.38;5.13;;;16.30;99.90;;;;;;5086566;28;20686;-35
2022/09/06 07:28:43;;;;;;;7.70;5.28;;;16.40;99.90;;;;;;5082014;28;20050;-32
2022/09/06 07:31:09;;;;;;;9.93;5.53;;;16.40;99.90;;;;;;5087256;28;20028;-33
2022/09/06 07:33:36;;;;;;;6.32;5.10;;;16.50;99.90;;;;;;5083463;28;20027;-35
2022/09/06 07:36:04;;;;;;;5.85;5.15;;;16.60;99.90;;;;;;5088742;28;20043;-36
2022/09/06 07:38:30;;;;;;;8.82;6.88;;;16.70;99.90;;;;;;5078180;28;20035;-32
2022/09/06 07:40:58;;;;;;;8.25;5.50;;;16.70;99.90;;;;;;5078177;28;20036;-32
2022/09/06 07:43:25;;;;;;;6.63;4.78;;;16.90;99.90;;;;;;5079319;28;20031;-32
2022/09/06 07:46:09;;;;;;;6.35;4.93;;;17.00;99.90;;;;;;5084569;28;20028;-37
2022/09/06 07:48:37;;;;;;;7.63;5.05;;;17.10;99.90;;;;;;5079488;28;20021;-34
2022/09/06 07:51:03;;;;;;;;;;;17.20;99.90;;;;;;5083153;28;20115;-37
2022/09/06 07:53:29;;;;;;;5.18;4.15;;;17.40;99.90;;;;;;5080166;28;20027;-33
2022/09/06 07:55:55;;;;;;;7.38;4.80;;;17.50;99.90;;;;;;5081446;28;20060;-34
2022/09/06 07:58:21;;;;;;;5.18;4.20;;;17.60;99.90;;;;;;5080097;28;20024;-32
2022/09/06 08:00:47;;;;;;;7.35;4.97;;;17.70;99.90;;;;;;5081057;28;20040;-33
2022/09/06 08:03:13;;;;;;;4.50;4.03;;;17.90;99.90;;;;;;5078969;28;20040;-35
2022/09/06 08:05:38;;;;;;;6.53;4.18;;;18.00;99.90;;;;;;5069138;28;20110;-32
2022/09/06 08:08:04;;;;;;;5.78;4.38;;;18.10;99.90;;;;;;5084748;28;20022;-32
2022/09/06 08:10:30;;;;;;;5.22;4.40;;;18.30;99.90;;;;;;5082158;28;20020;-33
2022/09/06 08:12:56;;;;;;;6.63;4.30;;;18.50;99.90;;;;;;5061783;28;20039;-32
2022/09/06 08:15:22;;;;;;;5.82;3.97;;;18.60;99.90;;;;;;5067951;28;20038;-33
2022/09/06 08:17:48;;;;;;;6.60;3.97;;;18.80;99.90;;;;;;5085539;28;20056;-35
2022/09/06 08:20:15;;;;;;;6.25;4.32;;;19.10;99.90;;;;;;5080934;28;20098;-34
2022/09/06 08:22:40;;;;;;;4.55;3.70;;;19.30;99.90;;;;;;5065420;28;20484;-34
2022/09/06 08:25:06;;;;;;;5.60;3.92;;;19.30;99.90;;;;;;5078266;28;20040;-32
2022/09/06 08:27:33;;;;;;;5.93;3.92;;;19.40;99.90;;;;;;5072130;28;20544;-32
2022/09/06 08:29:58;;;;;;;4.22;3.35;;;19.50;99.90;;;;;;5079786;28;21151;-33
2022/09/06 08:32:24;;;;;;;3.55;3.20;;;19.70;99.90;;;;;;5081524;28;20367;-32
2022/09/06 08:34:49;;;;;;;5.68;3.20;;;19.80;99.90;;;;;;5083396;28;20402;-35
2022/09/06 08:37:15;;;;;;;4.70;3.22;;;20.00;99.90;;;;;;5082019;28;20024;-32
2022/09/06 08:39:41;;;;;;;4.28;2.50;;;20.10;99.90;;;;;;5063484;28;20508;-31
2022/09/06 08:42:07;;;;;;;3.72;2.25;;;20.10;99.90;;;;;;5083132;28;20034;-32
2022/09/06 08:44:52;;;;;;;4.25;2.30;;;20.40;99.90;;;;;;5083060;28;20181;-35
2022/09/06 08:47:21;;;;;;;1.60;1.50;;;20.70;99.90;;;;;;5086603;28;20484;-32
2022/09/06 08:49:56;;;;;;;1.92;1.70;;;20.80;99.90;;;;;;5086108;28;20143;-35
2022/09/06 08:52:37;;;;;;;4.93;2.00;;;20.70;99.90;;;;;;5090246;28;20043;-33
2022/09/06 08:55:56;;;;;;;2.28;1.73;;;20.80;99.90;;;;;;5080440;28;20020;-33
2022/09/06 08:58:57;;;;;;;2.47;2.30;;;21.00;99.90;;;;;;5002346;28;20502;-31
2022/09/06 09:01:30;;;;;;;2.08;1.60;;;21.20;99.90;;;;;;5072315;28;20376;-31
2022/09/06 09:04:01;;;;;;;2.83;2.00;;;21.30;99.90;;;;;;5082519;28;20048;-34
2022/09/06 09:06:28;;;;;;;1.95;1.63;;;21.50;99.90;;;;;;5084996;28;20560;-33
2022/09/06 09:09:07;;;;;;;2.57;1.60;;;21.60;99.90;;;;;;5084235;28;20016;-34
2022/09/06 09:11:34;;;;;;;2.40;1.80;;;21.90;99.90;;;;;;5085383;28;21094;-32
2022/09/06 09:14:14;;;;;;;3.08;1.95;;;22.00;99.90;;;;;;5082919;28;20029;-37
2022/09/06 09:16:41;;;;;;;1.85;1.75;;;22.10;99.90;;;;;;5081914;28;20038;-34
2022/09/06 09:19:08;;;;;;;3.13;1.70;;;22.00;99.90;;;;;;5060857;28;20571;-38
2022/09/06 09:21:37;;;;;;;1.85;1.75;;;22.10;99.90;;;;;;5059957;28;20123;-32
2022/09/06 09:24:08;;;;;;;2.70;1.80;;;22.10;99.90;;;;;;5072880;28;20024;-34
2022/09/06 09:27:04;;;;;;;3.03;1.85;;;22.20;99.90;;;;;;5056493;28;20064;-31
2022/09/06 09:29:30;;;;;;;29.05;13.52;;;22.50;99.90;;;;;;5078122;28;20280;-33
2022/09/06 09:31:56;;;;;;;23.48;5.55;;;22.40;99.90;;;;;;5078160;28;20036;-32
2022/09/06 09:34:32;;;;;;;2.92;2.10;;;22.50;99.90;;;;;;5076564;28;20548;-34
2022/09/06 09:37:18;;;;;;;4.55;1.88;;;22.60;99.90;;;;;;5078781;28;21693;-31
2022/09/06 09:39:45;;;;;;;5.65;2.10;;;22.90;99.90;;;;;;5077436;28;20316;-33
2022/09/06 09:42:23;;;;;;;2.70;1.77;;;22.80;99.90;;;;;;5076117;28;20054;-31
2022/09/06 09:44:48;;;;;;;;;;;22.90;99.90;;;;;;5073552;28;20378;-34
2022/09/06 09:47:29;;;;;;;4.15;2.17;;;22.80;99.90;;;;;;5078017;28;20033;-30
2022/09/06 09:49:55;;;;;;;2.30;1.70;;;22.80;99.90;;;;;;5078858;28;20036;-32
2022/09/06 09:52:29;;;;;;;3.90;2.08;;;22.70;99.90;;;;;;5079231;28;20040;-33
2022/09/06 09:55:05;;;;;;;2.22;2.03;;;22.70;99.90;;;;;;5079881;28;20051;-32
2022/09/06 09:57:44;;;;;;;2.45;2.25;;;23.00;99.90;;;;;;5076769;28;20063;-34
2022/09/06 10:00:12;;;;;;;4.97;2.45;;;23.40;99.90;;;;;;5059655;28;20024;-30
2022/09/06 10:02:40;;;;;;;4.82;1.85;;;23.60;98.80;;;;;;5060905;28;20055;-34
2022/09/06 10:05:14;;;;;;;4.80;2.25;;;23.30;99.80;;;;;;5081083;28;20032;-31
2022/09/06 10:07:54;;;;;;;2.38;2.00;;;23.30;99.90;;;;;;5081864;28;20032;-32
2022/09/06 10:10:26;;;;;;;3.42;2.00;;;23.40;99.90;;;;;;5077996;28;20043;-32
2022/09/06 10:13:22;;;;;;;5.45;2.40;;;23.60;99.90;;;;;;5080196;28;20767;-30
2022/09/06 10:15:49;;;;;;;5.22;1.98;;;23.80;99.90;;;;;;5080230;28;20438;-33
2022/09/06 10:18:32;;;;;;;4.85;2.53;;;24.00;98.40;;;;;;5077550;28;20028;-32
2022/09/06 10:21:04;;;;;;;5.05;2.10;;;23.70;97.90;;;;;;5059006;28;20047;-34
2022/09/06 10:23:42;;;;;;;4.32;2.00;;;23.50;97.20;;;;;;5062216;28;20031;-32
2022/09/06 10:26:08;;;;;;;;;;;23.70;99.90;;;;;;5079051;28;20067;-30
2022/09/06 10:28:40;;;;;;;2.47;2.28;;;23.70;98.40;;;;;;5078466;28;19912;-32
2022/09/06 10:31:31;;;;;;;5.25;1.77;;;23.80;99.20;;;;;;5075985;28;20056;-32
2022/09/06 10:34:06;;;;;;;4.78;1.90;;;23.70;98.70;;;;;;5078404;28;20516;-31
2022/09/06 10:36:36;;;;;;;6.90;1.90;;;23.80;99.60;;;;;;5078479;28;21465;-34
2022/09/06 10:39:15;;;;;;;4.68;1.75;;;24.10;98.50;;;;;;5057405;28;20035;-30
2022/09/06 10:41:50;;;;;;;2.83;1.58;;;24.10;96.50;;;;;;5072542;28;20481;-31
2022/09/06 10:44:21;;;;;;;3.22;1.83;;;24.20;98.70;;;;;;5078434;28;20024;-31
2022/09/06 10:46:54;;;;;;;4.80;2.30;;;24.30;97.30;;;;;;5058379;28;20059;-34
2022/09/06 10:49:20;;;;;;;4.85;2.30;;;24.40;95.80;;;;;;5061231;28;20036;-31
2022/09/06 10:51:48;;;;;;;3.28;2.05;;;24.50;94.90;;;;;;5078200;28;20073;-34
2022/09/06 10:54:24;;;;;;;3.40;2.22;;;24.60;93.70;;;;;;5078776;28;20116;-33
2022/09/06 10:56:56;;;;;;;5.15;2.00;;;24.70;94.80;;;;;;5076058;28;20362;-31
2022/09/06 10:59:24;;;;;;;2.90;1.83;;;24.50;95.00;;;;;;5076224;28;20032;-31
2022/09/06 11:02:13;;;;;;;4.93;1.83;;;24.50;94.80;;;;;;5076854;28;20043;-32
2022/09/06 11:04:43;;;;;;;3.65;1.83;;;24.40;95.20;;;;;;5078158;28;20038;-34
2022/09/06 11:07:29;;;;;;;4.15;2.13;;;24.30;99.60;;;;;;5075449;28;20129;-31
2022/09/06 11:09:58;;;;;;;3.17;2.17;;;24.20;94.80;;;;;;5078640;28;20346;-35
2022/09/06 11:12:58;;;;;;;7.22;2.42;;;24.00;96.00;;;;;;5078540;28;20472;-31
2022/09/06 11:15:29;;;;;;;5.53;2.13;;;23.90;99.00;;;;;;5074957;28;20503;-33
2022/09/06 11:18:03;;;;;;;4.65;2.28;;;24.20;98.40;;;;;;5054838;28;20433;-32
2022/09/06 11:20:38;;;;;;;4.40;2.10;;;24.50;99.30;;;;;;5078370;28;20036;-32
2022/09/06 11:23:04;;;;;;;7.20;2.42;;;24.70;99.00;;;;;;5057653;28;20056;-32
2022/09/06 11:25:47;;;;;;;4.88;1.90;;;24.70;98.10;;;;;;5077562;28;20358;-32
2022/09/06 11:28:20;;;;;;;2.85;1.90;;;24.90;94.80;;;;;;5077435;28;20067;-33
2022/09/06 11:30:49;;;;;;;6.15;2.28;;;24.90;98.10;;;;;;5073530;28;20032;-31
2022/09/06 11:33:30;;;;;;;5.13;2.10;;;24.90;94.80;;;;;;5057347;28;20594;-33
2022/09/06 11:36:34;;;;;;;5.25;2.20;;;24.90;96.40;;;;;;5071309;28;20130;-31
2022/09/06 11:39:03;;;;;;;3.30;1.92;;;24.80;95.80;;;;;;4987044;28;20043;-34
2022/09/06 11:41:35;;;;;;;5.93;2.30;;;24.80;94.60;;;;;;5053595;28;20731;-32
2022/09/06 11:44:02;;;;;;;4.15;2.13;;;24.60;95.30;;;;;;5075505;28;20043;-33
2022/09/06 11:46:34;;;;;;;6.77;2.23;;;24.60;94.60;;;;;;5074535;28;20028;-33
2022/09/06 11:49:07;;;;;;;4.60;2.00;;;24.60;95.90;;;;;;5062141;28;20493;-34
2022/09/06 11:51:42;;;;;;;5.15;1.70;;;24.60;97.20;;;;;;5072266;28;20056;-31
2022/09/06 11:54:14;;;;;;;4.25;2.10;;;24.80;98.10;;;;;;5075794;28;20438;-31
2022/09/06 11:56:45;;;;;;;6.40;2.83;;;25.10;95.40;;;;;;5078654;28;21432;-33
2022/09/06 11:59:23;;;;;;;5.00;2.30;;;25.00;93.90;;;;;;5080029;28;20066;-31
2022/09/06 12:01:54;;;;;;;;;;;25.00;92.40;;;;;;5054417;28;20069;-36
2022/09/06 12:04:21;;;;;;;3.72;1.70;;;25.00;92.50;;;;;;5079426;28;19914;-33
2022/09/06 12:07:19;;;;;;;3.95;2.10;;;25.00;93.30;;;;;;5059318;28;20024;-32
2022/09/06 12:09:45;;;;;;;7.32;2.00;;;25.20;95.10;;;;;;5034548;28;20039;-32
2022/09/06 12:12:30;;;;;;;9.52;2.28;;;25.40;95.10;;;;;;5076378;28;20027;-34
2022/09/06 12:14:56;;;;;;;5.38;2.28;;;25.40;92.50;;;;;;5077923;28;20040;-32
2022/09/06 12:17:23;;;;;;;4.85;2.03;;;25.40;93.50;;;;;;5074789;28;20039;-31
2022/09/06 12:19:49;;;;;;;4.47;2.15;;;25.40;94.90;;;;;;5077066;28;20612;-32
2022/09/06 12:22:32;;;;;;;4.72;2.30;;;25.50;92.10;;;;;;5073800;28;20028;-32
2022/09/06 12:25:06;;;;;;;4.88;2.03;;;25.60;95.40;;;;;;5069663;28;20143;-36
2022/09/06 12:27:36;;;;;;;4.82;2.20;;;25.40;92.60;;;;;;5072281;28;20385;-33
2022/09/06 12:30:08;;;;;;;5.50;1.92;;;25.40;93.60;;;;;;5075938;28;20405;-32
2022/09/06 12:32:38;;;;;;;4.05;1.98;;;25.40;93.00;;;;;;5074292;28;20547;-34
2022/09/06 12:35:11;;;;;;;4.18;2.08;;;25.40;94.30;;;;;;5076006;28;20859;-33
2022/09/06 12:37:53;;;;;;;8.15;2.08;;;25.40;96.20;;;;;;5077701;28;20020;-36
2022/09/06 12:40:21;;;;;;;5.25;2.58;;;25.50;92.80;;;;;;5075924;28;20093;-32
2022/09/06 12:42:48;;;;;;;4.57;2.10;;;25.40;89.50;;;;;;5074679;28;21178;-31
2022/09/06 12:45:14;;;;;;;6.53;2.20;;;25.30;88.60;;;;;;5078559;28;20073;-34
2022/09/06 12:47:40;;;;;;;3.97;1.80;;;25.20;91.40;;;;;;5038610;28;20055;-32
2022/09/06 12:50:20;;;;;;;4.72;2.45;;;25.10;91.00;;;;;;5074012;28;20111;-33
2022/09/06 12:52:53;;;;;;;5.90;2.20;;;25.10;90.40;;;;;;5080817;28;20448;-31
2022/09/06 12:55:26;;;;;;;3.78;1.90;;;25.10;87.30;;;;;;5041684;28;20034;-34
2022/09/06 12:57:55;;;;;;;3.90;2.42;;;25.10;91.20;;;;;;5058392;28;20059;-33
2022/09/06 13:00:23;;;;;;;4.32;2.05;;;25.10;91.10;;;;;;5072300;28;20032;-33
2022/09/06 13:03:16;;;;;;;5.30;2.15;;;25.00;91.40;;;;;;5075703;28;20044;-32
2022/09/06 13:05:44;;;;;;;5.75;2.42;;;25.10;93.50;;;;;;5072143;28;20039;-33